FYGA4: White River At Fayetteville, AR

                                SHEF ID:       FYGA4     White River near Fayetteville, A
STATION TYPE: Stream Gauge

PRECIP STAGE RIV-FLOW WTR-TEMP DIS-OXY PH CONDUCT BAT-LOAD
in ft cfs F mg/l su umho/cm volt
Ccp-Rev Ccp-Rev Ccp-Rev Ccp-Rev Ccp-Rev Ccp-Rev Ccp-Rev Ccp-Rev
(America/Chicago)
11/26 00:00 0.00 2.72 198 56.91 8.81 7.46 156 12.65
11/26 01:00 0.00 2.73 201 56.70 8.93 7.47 155 12.65
11/26 02:00 0.00 2.70 192 56.41 8.98 7.47 154 12.57
11/26 03:00 0.00 2.77 213 56.25 9.03 7.48 155 12.57
11/26 04:00 0.00 2.79 219 56.16 9.07 7.47 154 12.57
11/26 05:00 0.00 2.80 222 55.99 9.11 7.49 154 12.57
11/26 06:00 0.00 2.80 222 55.76 9.14 7.49 151 12.57
11/26 07:00 0.00 2.80 222 55.51 9.14 7.49 150 12.49
11/26 08:00 0.00 2.80 222 55.36 9.22 7.48 150 12.49
11/26 09:00 0.00 2.75 207 55.40 9.31 7.49 151 13.21
11/26 10:00 0.00 2.71 195 55.78 9.46 7.52 152 13.68
11/26 11:00 0.00 2.72 198 56.34 9.62 7.56 150 14.24
11/26 12:00 0.00 2.73 201 56.86 9.72 7.58 149 14.24
11/26 13:00 0.00 2.73 201 57.09 9.77 7.56 149 14.16
11/26 14:00 0.00 2.73 201 57.13 9.79 7.59 148 14.08
11/26 15:00 0.00 2.74 204 56.68 9.68 7.59 148 13.29
11/26 16:00 0.00 2.76 210 56.26 9.58 7.58 147 13.05
11/26 17:00 0.00 2.76 210 55.89 9.47 7.54 148 12.97
11/26 18:00 0.00 2.75 207 55.62 9.39 7.52 148 12.73
11/26 19:00 0.00 2.75 207 55.44 9.34 7.51 148 12.73
11/26 20:00 0.00 2.75 207 55.26 9.36 7.51 149 12.65
11/26 21:00 0.00 2.74 204 55.08 9.37 7.51 150 12.65
11/26 22:00 0.00 2.74 204 54.93 9.38 7.50 150 12.65
11/26 23:00 0.00 2.73 201 54.77 9.35 7.49 150 12.65
Data processed at Thu 27Nov2025 05:10 GMT

NOTICE: If you are parsing this page

Please convert to using our Data API. Starting January 1st, 2026 we will be migrating to: https://water.usace.army.mil with modern pages rendered in JavaScript. You will no longer be able to scrape this page! CWMSDataAPI (CDA)

Timeseries IDs (TSIDs)

TSIDs used from left to right in the data table
FAYE.Precip-Inc.Total.1Hour.1Hour.Ccp-Rev
FAYE.Stage.Inst.1Hour.0.Ccp-Rev
FAYE.Flow.Inst.1Hour.0.Ccp-Rev
FAYE.Temp-Water.Inst.1Hour.0.Ccp-Rev
FAYE.Conc-DO.Inst.1Hour.0.Ccp-Rev
FAYE.pH.Inst.1Hour.0.Ccp-Rev
FAYE.Cond-Water.Inst.1Hour.0.Ccp-Rev
FAYE.Volt-Battery Load.Inst.1Hour.0.Ccp-Rev

                            

All information presented herein is the property of the government of the United States of America and may be revised or deleted at any time without prior notice. Dissemination of this information without the expressed written consent of the Public Affairs Office, Tulsa District U.S. Army Corps of Engineers is strictly prohibited. These data are gathered electronically and, as presented, have NOT undergone any form of quality control. These data are NOT guaranteed to be valid or correct.